sensor_id;sensor_type;location;lat;lon;timestamp;pressure;altitude;pressure_sealevel;temperature;humidity
59789;BME280;47353;51.614;5.530;2024-03-29T00:01:07;99004.47;;;8.91;78.88
59789;BME280;47353;51.614;5.530;2024-03-29T00:03:33;98996.50;;;8.90;78.72
59789;BME280;47353;51.614;5.530;2024-03-29T00:05:58;98991.84;;;8.63;80.10
59789;BME280;47353;51.614;5.530;2024-03-29T00:08:24;98992.09;;;8.89;78.76
59789;BME280;47353;51.614;5.530;2024-03-29T00:10:49;98990.09;;;8.67;79.98
59789;BME280;47353;51.614;5.530;2024-03-29T00:13:15;98995.41;;;8.77;79.89
59789;BME280;47353;51.614;5.530;2024-03-29T00:15:40;99004.84;;;8.49;80.91
59789;BME280;47353;51.614;5.530;2024-03-29T00:18:06;99009.22;;;8.64;80.73
59789;BME280;47353;51.614;5.530;2024-03-29T00:20:32;99005.16;;;8.48;81.36
59789;BME280;47353;51.614;5.530;2024-03-29T00:22:57;99013.41;;;8.48;81.50
59789;BME280;47353;51.614;5.530;2024-03-29T00:25:22;99014.59;;;8.14;83.42
59789;BME280;47353;51.614;5.530;2024-03-29T00:27:48;99021.75;;;8.15;83.81
59789;BME280;47353;51.614;5.530;2024-03-29T00:30:14;99023.06;;;8.18;83.36
59789;BME280;47353;51.614;5.530;2024-03-29T00:32:39;99027.38;;;8.10;84.44
59789;BME280;47353;51.614;5.530;2024-03-29T00:35:05;99028.28;;;8.06;84.57
59789;BME280;47353;51.614;5.530;2024-03-29T00:37:30;99028.28;;;8.06;84.92
59789;BME280;47353;51.614;5.530;2024-03-29T00:39:56;99026.91;;;7.90;85.46
59789;BME280;47353;51.614;5.530;2024-03-29T00:42:21;99025.69;;;7.96;84.86
59789;BME280;47353;51.614;5.530;2024-03-29T00:44:47;99025.38;;;7.84;85.79
59789;BME280;47353;51.614;5.530;2024-03-29T00:47:12;99021.69;;;7.75;86.60
59789;BME280;47353;51.614;5.530;2024-03-29T00:49:38;99028.03;;;7.75;86.88
59789;BME280;47353;51.614;5.530;2024-03-29T00:52:04;99030.56;;;7.72;86.89
59789;BME280;47353;51.614;5.530;2024-03-29T00:54:30;99036.75;;;7.64;87.63
59789;BME280;47353;51.614;5.530;2024-03-29T00:56:56;99047.03;;;7.58;87.79
59789;BME280;47353;51.614;5.530;2024-03-29T00:59:22;99042.34;;;7.59;88.02
59789;BME280;47353;51.614;5.530;2024-03-29T01:01:48;99035.72;;;7.60;88.27
59789;BME280;47353;51.614;5.530;2024-03-29T01:04:13;99045.56;;;7.47;89.26
59789;BME280;47353;51.614;5.530;2024-03-29T01:06:38;99039.00;;;7.62;88.07
59789;BME280;47353;51.614;5.530;2024-03-29T01:09:05;99038.88;;;7.53;88.61
59789;BME280;47353;51.614;5.530;2024-03-29T01:11:31;99032.13;;;7.46;89.02
59789;BME280;47353;51.614;5.530;2024-03-29T01:13:56;99039.16;;;7.52;88.96
59789;BME280;47353;51.614;5.530;2024-03-29T01:16:22;99044.66;;;7.52;89.91
59789;BME280;47353;51.614;5.530;2024-03-29T01:18:48;99048.25;;;7.52;89.20
59789;BME280;47353;51.614;5.530;2024-03-29T01:21:13;99041.84;;;7.57;89.44
59789;BME280;47353;51.614;5.530;2024-03-29T01:23:39;99043.25;;;7.54;89.08
59789;BME280;47353;51.614;5.530;2024-03-29T01:26:06;99028.38;;;7.55;89.58
59789;BME280;47353;51.614;5.530;2024-03-29T01:28:31;99011.63;;;7.52;89.54
59789;BME280;47353;51.614;5.530;2024-03-29T01:30:57;99007.56;;;7.49;89.95
59789;BME280;47353;51.614;5.530;2024-03-29T01:33:25;99017.38;;;7.55;89.08
59789;BME280;47353;51.614;5.530;2024-03-29T01:35:51;99021.66;;;7.61;89.62
59789;BME280;47353;51.614;5.530;2024-03-29T01:38:17;99007.41;;;7.41;90.93
59789;BME280;47353;51.614;5.530;2024-03-29T01:40:42;99003.69;;;7.50;90.19
59789;BME280;47353;51.614;5.530;2024-03-29T01:43:08;99005.16;;;7.75;89.03
59789;BME280;47353;51.614;5.530;2024-03-29T01:45:35;98981.28;;;7.70;89.25
59789;BME280;47353;51.614;5.530;2024-03-29T01:48:04;98969.03;;;7.63;89.21
59789;BME280;47353;51.614;5.530;2024-03-29T01:50:29;98958.44;;;7.70;89.37
59789;BME280;47353;51.614;5.530;2024-03-29T01:52:56;98959.25;;;7.57;90.23
59789;BME280;47353;51.614;5.530;2024-03-29T01:55:21;98973.31;;;7.55;90.64
59789;BME280;47353;51.614;5.530;2024-03-29T01:57:47;98970.66;;;7.64;89.70
59789;BME280;47353;51.614;5.530;2024-03-29T02:00:13;98984.13;;;7.65;89.97
59789;BME280;47353;51.614;5.530;2024-03-29T02:02:38;98966.50;;;7.66;89.93
59789;BME280;47353;51.614;5.530;2024-03-29T02:05:04;98968.53;;;7.61;90.46
59789;BME280;47353;51.614;5.530;2024-03-29T02:07:30;98972.63;;;7.63;90.40
59789;BME280;47353;51.614;5.530;2024-03-29T02:09:56;98976.84;;;8.01;88.70
59789;BME280;47353;51.614;5.530;2024-03-29T02:12:22;98975.53;;;8.12;87.25
59789;BME280;47353;51.614;5.530;2024-03-29T02:14:47;98986.44;;;8.04;87.15
59789;BME280;47353;51.614;5.530;2024-03-29T02:17:12;98987.16;;;8.09;87.32
59789;BME280;47353;51.614;5.530;2024-03-29T02:19:38;98988.00;;;8.37;86.44
59789;BME280;47353;51.614;5.530;2024-03-29T02:22:04;98997.81;;;8.29;86.25
59789;BME280;47353;51.614;5.530;2024-03-29T02:24:31;99008.41;;;8.22;86.36
59789;BME280;47353;51.614;5.530;2024-03-29T02:26:57;98999.03;;;8.37;85.47
59789;BME280;47353;51.614;5.530;2024-03-29T02:29:23;99004.44;;;8.56;84.42
59789;BME280;47353;51.614;5.530;2024-03-29T02:31:49;99014.94;;;8.54;84.67
59789;BME280;47353;51.614;5.530;2024-03-29T02:34:14;99012.50;;;8.38;85.53
59789;BME280;47353;51.614;5.530;2024-03-29T02:36:40;99010.44;;;8.58;83.85
59789;BME280;47353;51.614;5.530;2024-03-29T02:39:07;99002.78;;;8.68;83.90
59789;BME280;47353;51.614;5.530;2024-03-29T02:41:32;99020.41;;;8.81;83.62
59789;BME280;47353;51.614;5.530;2024-03-29T02:43:58;99012.75;;;8.78;83.75
59789;BME280;47353;51.614;5.530;2024-03-29T02:46:23;99018.56;;;8.90;82.94
59789;BME280;47353;51.614;5.530;2024-03-29T02:48:49;99021.06;;;8.64;85.18
59789;BME280;47353;51.614;5.530;2024-03-29T02:51:14;99027.13;;;9.02;82.04
59789;BME280;47353;51.614;5.530;2024-03-29T02:53:40;99024.31;;;9.15;81.28
59789;BME280;47353;51.614;5.530;2024-03-29T02:56:05;99009.94;;;9.05;81.26
59789;BME280;47353;51.614;5.530;2024-03-29T02:58:35;99014.72;;;9.13;80.78
59789;BME280;47353;51.614;5.530;2024-03-29T03:01:08;99019.69;;;9.24;79.86
59789;BME280;47353;51.614;5.530;2024-03-29T03:03:35;99019.63;;;9.16;80.61
59789;BME280;47353;51.614;5.530;2024-03-29T03:06:01;99019.38;;;9.26;80.04
59789;BME280;47353;51.614;5.530;2024-03-29T03:08:26;99018.63;;;9.34;79.45
59789;BME280;47353;51.614;5.530;2024-03-29T03:11:10;99025.72;;;9.48;78.35
59789;BME280;47353;51.614;5.530;2024-03-29T03:13:35;99022.84;;;9.31;79.91
59789;BME280;47353;51.614;5.530;2024-03-29T03:16:01;99041.59;;;9.43;80.26
59789;BME280;47353;51.614;5.530;2024-03-29T03:18:26;99045.13;;;9.57;78.90
59789;BME280;47353;51.614;5.530;2024-03-29T03:20:52;99047.19;;;9.51;79.91
59789;BME280;47353;51.614;5.530;2024-03-29T03:23:18;99050.91;;;9.47;81.08
59789;BME280;47353;51.614;5.530;2024-03-29T03:25:45;99056.44;;;9.33;83.65
59789;BME280;47353;51.614;5.530;2024-03-29T03:28:10;99052.69;;;9.29;85.07
59789;BME280;47353;51.614;5.530;2024-03-29T03:30:39;99053.38;;;9.13;86.11
59789;BME280;47353;51.614;5.530;2024-03-29T03:33:05;99038.88;;;9.29;86.13
59789;BME280;47353;51.614;5.530;2024-03-29T03:35:31;99041.81;;;9.11;88.70
59789;BME280;47353;51.614;5.530;2024-03-29T03:37:56;99040.41;;;9.00;90.19
59789;BME280;47353;51.614;5.530;2024-03-29T03:40:22;99028.22;;;9.01;90.50
59789;BME280;47353;51.614;5.530;2024-03-29T03:42:47;99031.38;;;9.08;91.44
59789;BME280;47353;51.614;5.530;2024-03-29T03:45:13;99043.09;;;8.91;92.83
59789;BME280;47353;51.614;5.530;2024-03-29T03:47:39;99032.22;;;8.95;93.44
59789;BME280;47353;51.614;5.530;2024-03-29T03:50:04;99040.44;;;8.86;94.21
59789;BME280;47353;51.614;5.530;2024-03-29T03:52:30;99038.59;;;8.82;95.57
59789;BME280;47353;51.614;5.530;2024-03-29T03:54:55;99040.22;;;8.83;94.92
59789;BME280;47353;51.614;5.530;2024-03-29T03:57:21;99036.53;;;8.87;95.21
59789;BME280;47353;51.614;5.530;2024-03-29T03:59:46;99047.53;;;8.65;96.52
59789;BME280;47353;51.614;5.530;2024-03-29T04:02:14;99049.34;;;8.83;96.22
59789;BME280;47353;51.614;5.530;2024-03-29T04:04:39;99054.25;;;8.73;96.85
59789;BME280;47353;51.614;5.530;2024-03-29T04:07:05;99057.41;;;8.80;96.03
59789;BME280;47353;51.614;5.530;2024-03-29T04:09:30;99055.59;;;8.62;98.81
59789;BME280;47353;51.614;5.530;2024-03-29T04:11:55;99050.44;;;8.82;96.52
59789;BME280;47353;51.614;5.530;2024-03-29T04:14:21;99064.97;;;8.88;96.36
59789;BME280;47353;51.614;5.530;2024-03-29T04:16:46;99057.09;;;8.81;97.37
59789;BME280;47353;51.614;5.530;2024-03-29T04:19:12;99049.84;;;8.85;97.64
59789;BME280;47353;51.614;5.530;2024-03-29T04:21:37;99065.88;;;8.83;98.45
59789;BME280;47353;51.614;5.530;2024-03-29T04:24:02;99084.50;;;8.51;100.00
59789;BME280;47353;51.614;5.530;2024-03-29T04:26:28;99074.19;;;8.70;100.00
59789;BME280;47353;51.614;5.530;2024-03-29T04:28:53;99067.31;;;8.54;100.00
59789;BME280;47353;51.614;5.530;2024-03-29T04:31:19;99074.25;;;8.78;100.00
59789;BME280;47353;51.614;5.530;2024-03-29T04:33:44;99051.31;;;8.56;100.00
59789;BME280;47353;51.614;5.530;2024-03-29T04:36:09;99070.38;;;8.52;100.00
59789;BME280;47353;51.614;5.530;2024-03-29T04:38:35;99058.28;;;8.07;100.00
59789;BME280;47353;51.614;5.530;2024-03-29T04:41:00;99067.78;;;8.15;100.00
59789;BME280;47353;51.614;5.530;2024-03-29T04:43:27;99069.91;;;8.04;100.00
59789;BME280;47353;51.614;5.530;2024-03-29T04:46:13;99070.75;;;8.05;100.00
59789;BME280;47353;51.614;5.530;2024-03-29T04:48:39;99071.34;;;8.02;100.00
59789;BME280;47353;51.614;5.530;2024-03-29T04:51:05;99069.81;;;7.77;100.00
59789;BME280;47353;51.614;5.530;2024-03-29T04:53:31;99065.19;;;7.91;100.00
59789;BME280;47353;51.614;5.530;2024-03-29T04:55:57;99065.03;;;7.69;100.00
59789;BME280;47353;51.614;5.530;2024-03-29T04:58:26;99067.94;;;7.59;100.00
59789;BME280;47353;51.614;5.530;2024-03-29T05:00:52;99067.59;;;7.47;100.00
59789;BME280;47353;51.614;5.530;2024-03-29T05:03:18;99066.16;;;7.50;100.00
59789;BME280;47353;51.614;5.530;2024-03-29T05:05:45;99079.03;;;7.54;100.00
59789;BME280;47353;51.614;5.530;2024-03-29T05:08:11;99068.84;;;7.55;100.00
59789;BME280;47353;51.614;5.530;2024-03-29T05:10:36;99069.41;;;7.38;100.00
59789;BME280;47353;51.614;5.530;2024-03-29T05:13:02;99070.78;;;7.54;100.00
59789;BME280;47353;51.614;5.530;2024-03-29T05:15:28;99063.28;;;7.41;100.00
59789;BME280;47353;51.614;5.530;2024-03-29T05:17:54;99055.59;;;7.57;100.00
59789;BME280;47353;51.614;5.530;2024-03-29T05:20:19;99052.72;;;7.30;100.00
59789;BME280;47353;51.614;5.530;2024-03-29T05:22:45;99055.25;;;7.45;100.00
59789;BME280;47353;51.614;5.530;2024-03-29T05:25:10;99075.50;;;7.35;100.00
59789;BME280;47353;51.614;5.530;2024-03-29T05:27:36;99065.53;;;7.21;100.00
59789;BME280;47353;51.614;5.530;2024-03-29T05:30:02;99075.50;;;7.35;100.00
59789;BME280;47353;51.614;5.530;2024-03-29T05:32:29;99060.47;;;7.28;100.00
59789;BME280;47353;51.614;5.530;2024-03-29T05:34:55;99057.50;;;7.24;100.00
59789;BME280;47353;51.614;5.530;2024-03-29T05:37:20;99046.44;;;7.11;100.00
59789;BME280;47353;51.614;5.530;2024-03-29T05:39:47;99045.31;;;7.12;100.00
59789;BME280;47353;51.614;5.530;2024-03-29T05:42:13;99047.63;;;7.05;100.00
59789;BME280;47353;51.614;5.530;2024-03-29T05:44:38;99045.31;;;7.12;100.00
59789;BME280;47353;51.614;5.530;2024-03-29T05:47:04;99038.69;;;6.94;100.00
59789;BME280;47353;51.614;5.530;2024-03-29T05:49:32;99044.41;;;6.98;100.00
59789;BME280;47353;51.614;5.530;2024-03-29T05:51:58;99049.09;;;7.16;100.00
59789;BME280;47353;51.614;5.530;2024-03-29T05:54:23;99056.59;;;7.29;100.00
59789;BME280;47353;51.614;5.530;2024-03-29T05:56:50;99062.13;;;7.10;100.00
59789;BME280;47353;51.614;5.530;2024-03-29T05:59:15;99052.38;;;6.99;100.00
59789;BME280;47353;51.614;5.530;2024-03-29T06:01:40;99060.38;;;6.96;100.00
59789;BME280;47353;51.614;5.530;2024-03-29T06:04:06;99063.91;;;7.01;100.00
59789;BME280;47353;51.614;5.530;2024-03-29T06:06:39;99073.84;;;6.97;100.00
59789;BME280;47353;51.614;5.530;2024-03-29T06:09:05;99072.97;;;7.02;100.00
59789;BME280;47353;51.614;5.530;2024-03-29T06:11:30;99082.69;;;6.94;100.00
59789;BME280;47353;51.614;5.530;2024-03-29T06:13:56;99086.72;;;7.02;100.00
59789;BME280;47353;51.614;5.530;2024-03-29T06:16:24;99090.66;;;7.14;100.00
59789;BME280;47353;51.614;5.530;2024-03-29T06:19:08;99094.88;;;7.07;100.00
59789;BME280;47353;51.614;5.530;2024-03-29T06:21:34;99094.28;;;7.10;100.00
59789;BME280;47353;51.614;5.530;2024-03-29T06:24:07;99100.53;;;6.97;100.00
59789;BME280;47353;51.614;5.530;2024-03-29T06:26:33;99085.72;;;6.93;100.00
59789;BME280;47353;51.614;5.530;2024-03-29T06:28:59;99094.59;;;7.08;100.00
59789;BME280;47353;51.614;5.530;2024-03-29T06:31:24;99088.41;;;6.98;100.00
59789;BME280;47353;51.614;5.530;2024-03-29T06:33:50;99097.63;;;7.07;100.00
59789;BME280;47353;51.614;5.530;2024-03-29T06:36:15;99095.84;;;7.16;100.00
59789;BME280;47353;51.614;5.530;2024-03-29T06:38:41;99086.88;;;7.29;100.00
59789;BME280;47353;51.614;5.530;2024-03-29T06:41:06;99092.44;;;7.24;100.00
59789;BME280;47353;51.614;5.530;2024-03-29T06:43:31;99087.47;;;7.07;100.00
59789;BME280;47353;51.614;5.530;2024-03-29T06:45:57;99082.56;;;7.04;100.00
59789;BME280;47353;51.614;5.530;2024-03-29T06:48:24;99077.38;;;7.21;100.00
59789;BME280;47353;51.614;5.530;2024-03-29T06:50:49;99070.81;;;7.17;100.00
59789;BME280;47353;51.614;5.530;2024-03-29T06:53:15;99060.31;;;7.19;100.00
59789;BME280;47353;51.614;5.530;2024-03-29T06:55:41;99060.47;;;7.28;100.00
59789;BME280;47353;51.614;5.530;2024-03-29T06:58:06;99056.31;;;7.30;100.00
59789;BME280;47353;51.614;5.530;2024-03-29T07:00:32;99057.94;;;7.31;100.00
59789;BME280;47353;51.614;5.530;2024-03-29T07:02:58;99074.97;;;7.33;100.00
59789;BME280;47353;51.614;5.530;2024-03-29T07:05:23;99070.59;;;7.32;100.00
59789;BME280;47353;51.614;5.530;2024-03-29T07:07:49;99070.88;;;7.31;100.00
59789;BME280;47353;51.614;5.530;2024-03-29T07:10:14;99075.56;;;7.30;100.00
59789;BME280;47353;51.614;5.530;2024-03-29T07:12:39;99071.97;;;7.48;100.00
59789;BME280;47353;51.614;5.530;2024-03-29T07:15:05;99072.06;;;7.62;100.00
59789;BME280;47353;51.614;5.530;2024-03-29T07:17:31;99081.13;;;7.44;100.00
59789;BME280;47353;51.614;5.530;2024-03-29T07:19:57;99086.84;;;7.66;100.00
59789;BME280;47353;51.614;5.530;2024-03-29T07:22:22;99084.50;;;7.73;100.00
59789;BME280;47353;51.614;5.530;2024-03-29T07:24:48;99090.84;;;7.73;100.00
59789;BME280;47353;51.614;5.530;2024-03-29T07:27:13;99093.56;;;7.92;100.00
59789;BME280;47353;51.614;5.530;2024-03-29T07:29:42;99098.44;;;7.95;100.00
59789;BME280;47353;51.614;5.530;2024-03-29T07:32:09;99112.09;;;8.18;100.00
59789;BME280;47353;51.614;5.530;2024-03-29T07:34:34;99105.72;;;8.04;100.00
59789;BME280;47353;51.614;5.530;2024-03-29T07:37:00;99114.22;;;8.08;100.00
59789;BME280;47353;51.614;5.530;2024-03-29T07:39:25;99106.13;;;7.98;100.00
59789;BME280;47353;51.614;5.530;2024-03-29T07:41:51;99094.06;;;8.26;100.00
59789;BME280;47353;51.614;5.530;2024-03-29T07:44:16;99104.81;;;8.09;100.00
59789;BME280;47353;51.614;5.530;2024-03-29T07:46:42;99100.53;;;8.16;100.00
59789;BME280;47353;51.614;5.530;2024-03-29T07:49:07;99105.22;;;8.02;100.00
59789;BME280;47353;51.614;5.530;2024-03-29T07:51:33;99122.03;;;8.01;100.00
59789;BME280;47353;51.614;5.530;2024-03-29T07:53:58;99120.50;;;8.27;100.00
59789;BME280;47353;51.614;5.530;2024-03-29T07:56:24;99122.72;;;7.93;100.00
59789;BME280;47353;51.614;5.530;2024-03-29T07:58:52;99100.25;;;8.18;100.00
59789;BME280;47353;51.614;5.530;2024-03-29T08:01:19;99111.78;;;8.20;100.00
59789;BME280;47353;51.614;5.530;2024-03-29T08:03:45;99115.22;;;8.12;100.00
59789;BME280;47353;51.614;5.530;2024-03-29T08:06:10;99101.84;;;8.05;100.00
59789;BME280;47353;51.614;5.530;2024-03-29T08:08:35;99102.16;;;8.17;100.00
59789;BME280;47353;51.614;5.530;2024-03-29T08:11:01;99098.44;;;8.27;100.00
59789;BME280;47353;51.614;5.530;2024-03-29T08:13:26;99100.09;;;8.41;100.00
59789;BME280;47353;51.614;5.530;2024-03-29T08:15:59;99106.31;;;8.61;100.00
59789;BME280;47353;51.614;5.530;2024-03-29T08:18:26;99110.34;;;8.68;100.00
59789;BME280;47353;51.614;5.530;2024-03-29T08:20:52;99107.16;;;8.88;100.00
59789;BME280;47353;51.614;5.530;2024-03-29T08:23:20;99094.91;;;8.94;100.00
59789;BME280;47353;51.614;5.530;2024-03-29T08:25:45;99100.69;;;9.06;100.00
59789;BME280;47353;51.614;5.530;2024-03-29T08:28:11;99107.69;;;9.26;100.00
59789;BME280;47353;51.614;5.530;2024-03-29T08:30:36;99115.88;;;9.31;100.00
59789;BME280;47353;51.614;5.530;2024-03-29T08:33:04;99116.31;;;9.82;100.00
59789;BME280;47353;51.614;5.530;2024-03-29T08:35:31;99128.00;;;10.54;100.00
59789;BME280;47353;51.614;5.530;2024-03-29T08:37:56;99140.75;;;10.63;100.00
59789;BME280;47353;51.614;5.530;2024-03-29T08:40:22;99128.22;;;11.05;100.00
59789;BME280;47353;51.614;5.530;2024-03-29T08:42:47;99129.56;;;11.24;100.00
59789;BME280;47353;51.614;5.530;2024-03-29T08:45:13;99133.22;;;11.50;100.00
59789;BME280;47353;51.614;5.530;2024-03-29T08:47:39;99140.25;;;11.99;100.00
59789;BME280;47353;51.614;5.530;2024-03-29T08:50:04;99150.84;;;11.63;100.00
59789;BME280;47353;51.614;5.530;2024-03-29T08:52:30;99150.28;;;11.35;100.00
59789;BME280;47353;51.614;5.530;2024-03-29T08:54:56;99159.44;;;10.88;100.00
59789;BME280;47353;51.614;5.530;2024-03-29T08:57:21;99169.53;;;10.93;100.00
59789;BME280;47353;51.614;5.530;2024-03-29T08:59:47;99170.97;;;10.51;100.00
59789;BME280;47353;51.614;5.530;2024-03-29T09:02:12;99150.47;;;10.52;100.00
59789;BME280;47353;51.614;5.530;2024-03-29T09:04:38;99162.06;;;10.32;100.00
59789;BME280;47353;51.614;5.530;2024-03-29T09:07:03;99140.41;;;10.56;100.00
59789;BME280;47353;51.614;5.530;2024-03-29T09:09:32;99142.13;;;10.83;100.00
59789;BME280;47353;51.614;5.530;2024-03-29T09:11:58;99147.97;;;10.73;100.00
59789;BME280;47353;51.614;5.530;2024-03-29T09:14:23;99146.75;;;11.60;100.00
59789;BME280;47353;51.614;5.530;2024-03-29T09:16:49;99160.31;;;11.96;100.00
59789;BME280;47353;51.614;5.530;2024-03-29T09:19:16;99158.31;;;12.39;100.00
59789;BME280;47353;51.614;5.530;2024-03-29T09:21:42;99155.31;;;12.61;100.00
59789;BME280;47353;51.614;5.530;2024-03-29T09:24:07;99169.94;;;12.79;97.79
59789;BME280;47353;51.614;5.530;2024-03-29T09:26:33;99171.16;;;12.52;96.53
59789;BME280;47353;51.614;5.530;2024-03-29T09:28:58;99178.84;;;12.55;98.00
59789;BME280;47353;51.614;5.530;2024-03-29T09:31:24;99172.28;;;12.68;96.88
59789;BME280;47353;51.614;5.530;2024-03-29T09:33:49;99176.09;;;12.30;99.02
59789;BME280;47353;51.614;5.530;2024-03-29T09:36:21;99166.34;;;13.54;100.00
59789;BME280;47353;51.614;5.530;2024-03-29T09:38:49;99181.72;;;13.80;94.83
59789;BME280;47353;51.614;5.530;2024-03-29T09:41:17;99197.22;;;14.22;91.36
59789;BME280;47353;51.614;5.530;2024-03-29T09:43:43;99201.22;;;14.86;87.55
59789;BME280;47353;51.614;5.530;2024-03-29T09:46:15;99206.97;;;13.67;90.78
59789;BME280;47353;51.614;5.530;2024-03-29T09:48:42;99175.72;;;13.11;91.38
59789;BME280;47353;51.614;5.530;2024-03-29T09:51:08;99200.94;;;12.98;100.00
59789;BME280;47353;51.614;5.530;2024-03-29T09:53:36;99211.88;;;12.94;96.08
59789;BME280;47353;51.614;5.530;2024-03-29T09:56:05;99205.09;;;12.75;97.24
59789;BME280;47353;51.614;5.530;2024-03-29T09:58:31;99200.56;;;13.46;98.21
59789;BME280;47353;51.614;5.530;2024-03-29T10:00:57;99211.19;;;13.43;98.70
59789;BME280;47353;51.614;5.530;2024-03-29T10:03:27;99210.50;;;13.55;95.31
59789;BME280;47353;51.614;5.530;2024-03-29T10:05:57;99227.66;;;13.57;93.83
59789;BME280;47353;51.614;5.530;2024-03-29T10:08:34;99208.22;;;13.19;93.46
59789;BME280;47353;51.614;5.530;2024-03-29T10:11:01;99220.16;;;13.20;92.79
59789;BME280;47353;51.614;5.530;2024-03-29T10:13:26;99205.53;;;12.85;94.05
59789;BME280;47353;51.614;5.530;2024-03-29T10:15:53;99203.94;;;13.30;92.05
59789;BME280;47353;51.614;5.530;2024-03-29T10:18:24;99195.25;;;13.61;92.76
59789;BME280;47353;51.614;5.530;2024-03-29T10:21:01;99200.94;;;14.67;86.92
59789;BME280;47353;51.614;5.530;2024-03-29T10:23:27;99203.88;;;15.76;82.46
59789;BME280;47353;51.614;5.530;2024-03-29T10:25:53;99207.53;;;16.43;73.59
59789;BME280;47353;51.614;5.530;2024-03-29T10:28:19;99211.72;;;15.98;75.82
59789;BME280;47353;51.614;5.530;2024-03-29T10:30:44;99208.25;;;15.89;75.73
59789;BME280;47353;51.614;5.530;2024-03-29T10:33:10;99203.97;;;15.31;79.58
59789;BME280;47353;51.614;5.530;2024-03-29T10:35:35;99210.97;;;16.25;74.36
59789;BME280;47353;51.614;5.530;2024-03-29T10:38:04;99212.25;;;16.55;73.12
59789;BME280;47353;51.614;5.530;2024-03-29T10:40:30;99212.97;;;16.80;71.93
59789;BME280;47353;51.614;5.530;2024-03-29T10:42:56;99214.31;;;17.60;67.35
59789;BME280;47353;51.614;5.530;2024-03-29T10:45:22;99212.75;;;17.93;63.98
59789;BME280;47353;51.614;5.530;2024-03-29T10:47:49;99205.56;;;17.46;64.09
59789;BME280;47353;51.614;5.530;2024-03-29T10:50:17;99230.81;;;16.47;67.49
59789;BME280;47353;51.614;5.530;2024-03-29T10:52:45;99205.97;;;16.86;64.15
59789;BME280;47353;51.614;5.530;2024-03-29T10:55:10;99219.28;;;16.49;66.87
59789;BME280;47353;51.614;5.530;2024-03-29T10:57:40;99232.53;;;16.00;67.38
59789;BME280;47353;51.614;5.530;2024-03-29T11:00:13;99240.25;;;16.31;66.67
59789;BME280;47353;51.614;5.530;2024-03-29T11:02:54;99253.81;;;17.43;64.16
59789;BME280;47353;51.614;5.530;2024-03-29T11:05:23;99266.34;;;18.11;56.92
59789;BME280;47353;51.614;5.530;2024-03-29T11:07:52;99258.16;;;17.40;61.55
59789;BME280;47353;51.614;5.530;2024-03-29T11:10:35;99254.94;;;16.28;64.99
59789;BME280;47353;51.614;5.530;2024-03-29T11:15:53;99248.88;;;14.40;74.17
59789;BME280;47353;51.614;5.530;2024-03-29T11:18:19;99207.78;;;14.17;75.78
59789;BME280;47353;51.614;5.530;2024-03-29T11:20:46;99198.13;;;15.36;73.91
59789;BME280;47353;51.614;5.530;2024-03-29T11:23:17;99201.34;;;16.10;68.83
59789;BME280;47353;51.614;5.530;2024-03-29T11:25:49;99202.69;;;17.92;59.55
59789;BME280;47353;51.614;5.530;2024-03-29T11:28:23;99215.75;;;17.07;62.40
59789;BME280;47353;51.614;5.530;2024-03-29T11:30:49;99213.25;;;18.53;55.90
59789;BME280;47353;51.614;5.530;2024-03-29T11:38:45;99245.25;;;14.60;70.98
59789;BME280;47353;51.614;5.530;2024-03-29T11:41:21;99241.84;;;15.92;65.89
59789;BME280;47353;51.614;5.530;2024-03-29T11:43:54;99237.53;;;15.95;65.40
59789;BME280;47353;51.614;5.530;2024-03-29T11:46:20;99240.91;;;14.83;69.03
59789;BME280;47353;51.614;5.530;2024-03-29T11:48:46;99239.41;;;14.86;70.03
59789;BME280;47353;51.614;5.530;2024-03-29T11:51:15;99238.38;;;15.47;69.05
59789;BME280;47353;51.614;5.530;2024-03-29T11:53:41;99236.50;;;15.75;67.06
59789;BME280;47353;51.614;5.530;2024-03-29T11:56:07;99240.47;;;15.86;65.59
59789;BME280;47353;51.614;5.530;2024-03-29T11:58:33;99240.47;;;15.74;65.17
59789;BME280;47353;51.614;5.530;2024-03-29T12:01:00;99250.72;;;16.34;63.89
59789;BME280;47353;51.614;5.530;2024-03-29T12:03:28;99250.91;;;15.53;65.67
59789;BME280;47353;51.614;5.530;2024-03-29T12:05:55;99262.69;;;15.71;64.75
59789;BME280;47353;51.614;5.530;2024-03-29T12:08:24;99264.31;;;16.35;63.03
59789;BME280;47353;51.614;5.530;2024-03-29T12:10:51;99271.19;;;18.14;55.90
59789;BME280;47353;51.614;5.530;2024-03-29T12:13:17;99283.16;;;17.64;57.52
59789;BME280;47353;51.614;5.530;2024-03-29T12:15:43;99268.00;;;17.96;56.03
59789;BME280;47353;51.614;5.530;2024-03-29T12:18:09;99264.47;;;19.29;52.93
59789;BME280;47353;51.614;5.530;2024-03-29T12:20:37;99255.47;;;19.39;52.12
59789;BME280;47353;51.614;5.530;2024-03-29T12:23:04;99262.69;;;19.63;52.49
59789;BME280;47353;51.614;5.530;2024-03-29T12:25:30;99274.16;;;20.52;48.65
59789;BME280;47353;51.614;5.530;2024-03-29T12:27:57;99271.81;;;21.20;43.68
59789;BME280;47353;51.614;5.530;2024-03-29T12:30:23;99270.63;;;21.58;44.40
59789;BME280;47353;51.614;5.530;2024-03-29T12:33:06;99274.59;;;21.16;42.94
59789;BME280;47353;51.614;5.530;2024-03-29T12:35:32;99267.69;;;20.51;44.71
59789;BME280;47353;51.614;5.530;2024-03-29T12:38:02;99261.94;;;21.77;43.37
59789;BME280;47353;51.614;5.530;2024-03-29T12:40:29;99269.72;;;22.48;39.50
59789;BME280;47353;51.614;5.530;2024-03-29T12:43:02;99278.63;;;19.55;43.88
59789;BME280;47353;51.614;5.530;2024-03-29T12:45:28;99262.97;;;20.03;43.08
59789;BME280;47353;51.614;5.530;2024-03-29T12:47:54;99269.38;;;20.26;42.44
59789;BME280;47353;51.614;5.530;2024-03-29T12:50:26;99252.63;;;19.17;45.51
59789;BME280;47353;51.614;5.530;2024-03-29T12:53:00;99256.03;;;18.50;47.81
59789;BME280;47353;51.614;5.530;2024-03-29T12:55:26;99266.28;;;18.80;46.70
59789;BME280;47353;51.614;5.530;2024-03-29T12:58:02;99265.94;;;17.78;49.41
59789;BME280;47353;51.614;5.530;2024-03-29T13:00:30;99253.16;;;18.65;48.50
59789;BME280;47353;51.614;5.530;2024-03-29T13:02:55;99245.03;;;19.62;46.33
59789;BME280;47353;51.614;5.530;2024-03-29T13:05:21;99262.69;;;20.12;44.83
59789;BME280;47353;51.614;5.530;2024-03-29T13:07:47;99271.19;;;19.92;44.47